ボゴタ の空港の天気 - METARとTAF

エルドラド国際空港(ボコダ) ( SKBO / BOG ) - コロンビア ボゴタ
飛行場実況気象(Metar)
観測時間06/17 14:00 COT (06/17 19:00 UTC)
風向・風速南 9m/s
視程10km以上
天気現象
少しの雲 雲底高度 610m
気温20℃
湿度49%
気圧1027hPa
METARSKBO 171900Z 17018KT 9999 FEW020 20/09 A3033 NOSIG
過去の天気等 Google飛行場航空写真 Wunderground天気予報

過去48時間のMETAR

飛行場予報(TAF)
発表時間: 6/17 11:30 COT (6/17 16:30 UTC)
予報対象時間: 17日13時 COT ~ 18日13時 COT
風向・風速南南東 7m/s
視程10km以上
全天の4割程度の雲 雲底高度 610m
全天の4割程度の雲 雲底高度 3050m
17日20時 COT ~ 17日22時 COT に徐々に
風向・風速不定 2m/s
少しの雲 雲底高度 520m
TAF SKBO 171630Z 1718/1818 16014KT 9999 SCT020 SCT100 1722/1724 DZ BKN017
BECMG 1801/1803 VRB03KT FEW017 TX22/1718Z TN10/1811Z